sensor_id;sensor_type;location;lat;lon;timestamp;P1;durP1;ratioP1;P2;durP2;ratioP2
8397;SDS011;4236;54.504;9.588;2023-12-22T00:00:31;20.87;;;18.63;;
8397;SDS011;4236;54.504;9.588;2023-12-22T00:02:59;21.20;;;19.20;;
8397;SDS011;4236;54.504;9.588;2023-12-22T00:05:26;20.03;;;18.47;;
8397;SDS011;4236;54.504;9.588;2023-12-22T00:07:54;20.97;;;18.10;;
8397;SDS011;4236;54.504;9.588;2023-12-22T00:10:21;27.33;;;18.37;;
8397;SDS011;4236;54.504;9.588;2023-12-22T00:12:51;17.53;;;16.20;;
8397;SDS011;4236;54.504;9.588;2023-12-22T00:15:18;20.17;;;18.07;;
8397;SDS011;4236;54.504;9.588;2023-12-22T00:17:46;24.63;;;18.67;;
8397;SDS011;4236;54.504;9.588;2023-12-22T00:20:14;18.93;;;17.43;;
8397;SDS011;4236;54.504;9.588;2023-12-22T00:22:42;20.13;;;18.27;;
8397;SDS011;4236;54.504;9.588;2023-12-22T00:25:10;23.80;;;20.10;;
8397;SDS011;4236;54.504;9.588;2023-12-22T00:27:38;18.37;;;17.03;;
8397;SDS011;4236;54.504;9.588;2023-12-22T00:30:08;18.93;;;17.53;;
8397;SDS011;4236;54.504;9.588;2023-12-22T00:32:36;28.00;;;17.73;;
8397;SDS011;4236;54.504;9.588;2023-12-22T00:35:04;18.77;;;17.30;;
8397;SDS011;4236;54.504;9.588;2023-12-22T00:37:32;19.53;;;18.10;;
8397;SDS011;4236;54.504;9.588;2023-12-22T00:40:00;27.23;;;18.80;;
8397;SDS011;4236;54.504;9.588;2023-12-22T00:42:28;18.33;;;17.03;;
8397;SDS011;4236;54.504;9.588;2023-12-22T00:44:55;18.27;;;16.93;;
8397;SDS011;4236;54.504;9.588;2023-12-22T00:47:25;26.10;;;17.43;;
8397;SDS011;4236;54.504;9.588;2023-12-22T00:49:53;19.10;;;17.03;;
8397;SDS011;4236;54.504;9.588;2023-12-22T00:52:21;18.17;;;15.90;;
8397;SDS011;4236;54.504;9.588;2023-12-22T00:54:49;20.73;;;17.40;;
8397;SDS011;4236;54.504;9.588;2023-12-22T00:57:17;34.30;;;18.97;;
8397;SDS011;4236;54.504;9.588;2023-12-22T00:59:46;19.93;;;17.67;;
8397;SDS011;4236;54.504;9.588;2023-12-22T01:02:14;20.43;;;18.50;;
8397;SDS011;4236;54.504;9.588;2023-12-22T01:04:43;20.43;;;18.53;;
8397;SDS011;4236;54.504;9.588;2023-12-22T01:07:11;20.10;;;18.30;;
8397;SDS011;4236;54.504;9.588;2023-12-22T01:09:40;21.27;;;19.17;;
8397;SDS011;4236;54.504;9.588;2023-12-22T01:12:08;19.93;;;17.80;;
8397;SDS011;4236;54.504;9.588;2023-12-22T01:14:37;25.63;;;19.93;;
8397;SDS011;4236;54.504;9.588;2023-12-22T01:17:04;24.00;;;19.77;;
8397;SDS011;4236;54.504;9.588;2023-12-22T01:19:32;24.97;;;22.10;;
8397;SDS011;4236;54.504;9.588;2023-12-22T01:22:01;27.03;;;20.90;;
8397;SDS011;4236;54.504;9.588;2023-12-22T01:24:28;22.73;;;20.47;;
8397;SDS011;4236;54.504;9.588;2023-12-22T01:26:56;21.97;;;19.93;;
8397;SDS011;4236;54.504;9.588;2023-12-22T01:29:25;28.13;;;20.60;;
8397;SDS011;4236;54.504;9.588;2023-12-22T01:31:52;22.97;;;20.67;;
8397;SDS011;4236;54.504;9.588;2023-12-22T01:34:20;25.07;;;19.53;;
8397;SDS011;4236;54.504;9.588;2023-12-22T01:36:47;20.43;;;19.10;;
8397;SDS011;4236;54.504;9.588;2023-12-22T01:39:17;21.93;;;17.93;;
8397;SDS011;4236;54.504;9.588;2023-12-22T01:41:45;24.30;;;18.40;;
8397;SDS011;4236;54.504;9.588;2023-12-22T01:44:12;19.47;;;17.70;;
8397;SDS011;4236;54.504;9.588;2023-12-22T01:46:40;21.47;;;19.20;;
8397;SDS011;4236;54.504;9.588;2023-12-22T01:49:08;20.30;;;18.37;;
8397;SDS011;4236;54.504;9.588;2023-12-22T01:51:36;25.80;;;20.10;;
8397;SDS011;4236;54.504;9.588;2023-12-22T01:54:06;21.73;;;19.53;;
8397;SDS011;4236;54.504;9.588;2023-12-22T01:56:35;23.27;;;21.10;;
8397;SDS011;4236;54.504;9.588;2023-12-22T01:59:02;25.70;;;23.63;;
8397;SDS011;4236;54.504;9.588;2023-12-22T02:01:30;25.90;;;23.40;;
8397;SDS011;4236;54.504;9.588;2023-12-22T02:03:59;28.27;;;24.50;;
8397;SDS011;4236;54.504;9.588;2023-12-22T02:06:27;25.73;;;23.03;;
8397;SDS011;4236;54.504;9.588;2023-12-22T02:08:57;23.53;;;21.73;;
8397;SDS011;4236;54.504;9.588;2023-12-22T02:11:24;22.97;;;20.70;;
8397;SDS011;4236;54.504;9.588;2023-12-22T02:13:54;25.60;;;23.83;;
8397;SDS011;4236;54.504;9.588;2023-12-22T02:16:24;24.33;;;22.70;;
8397;SDS011;4236;54.504;9.588;2023-12-22T02:18:55;27.10;;;25.57;;
8397;SDS011;4236;54.504;9.588;2023-12-22T02:21:23;26.70;;;25.37;;
8397;SDS011;4236;54.504;9.588;2023-12-22T02:23:52;29.60;;;27.20;;
8397;SDS011;4236;54.504;9.588;2023-12-22T02:26:21;31.47;;;29.67;;
8397;SDS011;4236;54.504;9.588;2023-12-22T02:28:51;31.30;;;29.57;;
8397;SDS011;4236;54.504;9.588;2023-12-22T02:31:22;29.73;;;28.23;;
8397;SDS011;4236;54.504;9.588;2023-12-22T02:33:51;33.17;;;30.67;;
8397;SDS011;4236;54.504;9.588;2023-12-22T02:36:21;35.27;;;32.90;;
8397;SDS011;4236;54.504;9.588;2023-12-22T02:38:50;32.80;;;31.00;;
8397;SDS011;4236;54.504;9.588;2023-12-22T02:41:20;45.33;;;42.53;;
8397;SDS011;4236;54.504;9.588;2023-12-22T02:43:48;53.27;;;50.20;;
8397;SDS011;4236;54.504;9.588;2023-12-22T02:46:15;58.87;;;54.30;;
8397;SDS011;4236;54.504;9.588;2023-12-22T02:48:43;60.47;;;57.60;;
8397;SDS011;4236;54.504;9.588;2023-12-22T02:51:10;64.67;;;61.57;;
8397;SDS011;4236;54.504;9.588;2023-12-22T02:53:38;64.07;;;60.53;;
8397;SDS011;4236;54.504;9.588;2023-12-22T02:56:06;65.00;;;61.70;;
8397;SDS011;4236;54.504;9.588;2023-12-22T02:58:35;67.43;;;63.90;;
8397;SDS011;4236;54.504;9.588;2023-12-22T03:01:03;61.80;;;58.00;;
8397;SDS011;4236;54.504;9.588;2023-12-22T03:03:30;62.17;;;58.50;;
8397;SDS011;4236;54.504;9.588;2023-12-22T03:05:58;70.00;;;66.60;;
8397;SDS011;4236;54.504;9.588;2023-12-22T03:08:25;79.47;;;75.80;;
8397;SDS011;4236;54.504;9.588;2023-12-22T03:10:53;91.97;;;87.93;;
8397;SDS011;4236;54.504;9.588;2023-12-22T03:13:20;87.67;;;83.57;;
8397;SDS011;4236;54.504;9.588;2023-12-22T03:15:49;312.30;;;298.83;;
8397;SDS011;4236;54.504;9.588;2023-12-22T03:18:17;399.70;;;381.70;;
8397;SDS011;4236;54.504;9.588;2023-12-22T03:20:45;364.40;;;348.90;;
8397;SDS011;4236;54.504;9.588;2023-12-22T03:23:12;386.67;;;370.70;;
8397;SDS011;4236;54.504;9.588;2023-12-22T03:25:40;350.93;;;335.67;;
8397;SDS011;4236;54.504;9.588;2023-12-22T03:28:07;311.67;;;299.37;;
8397;SDS011;4236;54.504;9.588;2023-12-22T03:30:35;289.70;;;278.40;;
8397;SDS011;4236;54.504;9.588;2023-12-22T03:33:05;282.83;;;271.87;;
8397;SDS011;4236;54.504;9.588;2023-12-22T03:35:33;291.83;;;280.33;;
8397;SDS011;4236;54.504;9.588;2023-12-22T03:38:01;288.53;;;277.47;;
8397;SDS011;4236;54.504;9.588;2023-12-22T03:40:28;259.00;;;248.83;;
8397;SDS011;4236;54.504;9.588;2023-12-22T03:42:56;253.37;;;243.27;;
8397;SDS011;4236;54.504;9.588;2023-12-22T03:45:24;293.43;;;282.17;;
8397;SDS011;4236;54.504;9.588;2023-12-22T03:47:51;301.23;;;289.03;;
8397;SDS011;4236;54.504;9.588;2023-12-22T03:50:20;269.83;;;258.90;;
8397;SDS011;4236;54.504;9.588;2023-12-22T03:52:48;241.40;;;232.00;;
8397;SDS011;4236;54.504;9.588;2023-12-22T03:55:16;264.23;;;254.83;;
8397;SDS011;4236;54.504;9.588;2023-12-22T03:57:44;289.07;;;277.67;;
8397;SDS011;4236;54.504;9.588;2023-12-22T04:00:12;357.27;;;342.30;;
8397;SDS011;4236;54.504;9.588;2023-12-22T04:02:41;362.07;;;346.93;;
8397;SDS011;4236;54.504;9.588;2023-12-22T04:05:10;339.93;;;326.27;;
8397;SDS011;4236;54.504;9.588;2023-12-22T04:07:40;343.57;;;329.33;;
8397;SDS011;4236;54.504;9.588;2023-12-22T04:10:07;337.27;;;323.50;;
8397;SDS011;4236;54.504;9.588;2023-12-22T04:12:35;354.53;;;339.73;;
8397;SDS011;4236;54.504;9.588;2023-12-22T04:15:03;406.80;;;390.03;;
8397;SDS011;4236;54.504;9.588;2023-12-22T04:17:31;397.00;;;380.73;;
8397;SDS011;4236;54.504;9.588;2023-12-22T04:19:59;404.40;;;387.13;;
8397;SDS011;4236;54.504;9.588;2023-12-22T04:22:27;407.13;;;389.00;;
8397;SDS011;4236;54.504;9.588;2023-12-22T04:24:56;392.80;;;375.00;;
8397;SDS011;4236;54.504;9.588;2023-12-22T04:27:23;394.07;;;377.10;;
8397;SDS011;4236;54.504;9.588;2023-12-22T04:29:52;384.17;;;368.20;;
8397;SDS011;4236;54.504;9.588;2023-12-22T04:32:19;393.63;;;376.33;;
8397;SDS011;4236;54.504;9.588;2023-12-22T04:34:47;385.53;;;368.87;;
8397;SDS011;4236;54.504;9.588;2023-12-22T04:37:15;383.70;;;367.40;;
8397;SDS011;4236;54.504;9.588;2023-12-22T04:39:42;388.50;;;371.67;;
8397;SDS011;4236;54.504;9.588;2023-12-22T04:42:11;341.90;;;326.50;;
8397;SDS011;4236;54.504;9.588;2023-12-22T04:44:39;356.20;;;339.43;;
8397;SDS011;4236;54.504;9.588;2023-12-22T04:47:06;342.70;;;327.23;;
8397;SDS011;4236;54.504;9.588;2023-12-22T04:49:34;319.77;;;305.47;;
8397;SDS011;4236;54.504;9.588;2023-12-22T04:52:01;307.27;;;294.33;;
8397;SDS011;4236;54.504;9.588;2023-12-22T04:54:29;320.73;;;306.13;;
8397;SDS011;4236;54.504;9.588;2023-12-22T04:56:57;326.27;;;310.90;;
8397;SDS011;4236;54.504;9.588;2023-12-22T04:59:26;354.30;;;337.73;;
8397;SDS011;4236;54.504;9.588;2023-12-22T05:01:54;340.30;;;324.33;;
8397;SDS011;4236;54.504;9.588;2023-12-22T05:04:21;349.77;;;332.47;;
8397;SDS011;4236;54.504;9.588;2023-12-22T05:06:49;316.67;;;302.37;;
8397;SDS011;4236;54.504;9.588;2023-12-22T05:09:16;290.03;;;276.07;;
8397;SDS011;4236;54.504;9.588;2023-12-22T05:11:44;167.93;;;159.67;;
8397;SDS011;4236;54.504;9.588;2023-12-22T05:14:12;115.83;;;109.07;;
8397;SDS011;4236;54.504;9.588;2023-12-22T05:16:40;59.47;;;55.33;;
8397;SDS011;4236;54.504;9.588;2023-12-22T05:19:08;53.60;;;50.33;;
8397;SDS011;4236;54.504;9.588;2023-12-22T05:21:36;53.77;;;49.47;;
8397;SDS011;4236;54.504;9.588;2023-12-22T05:24:04;44.93;;;41.03;;
8397;SDS011;4236;54.504;9.588;2023-12-22T05:26:31;43.93;;;40.77;;
8397;SDS011;4236;54.504;9.588;2023-12-22T05:28:59;41.17;;;38.13;;
8397;SDS011;4236;54.504;9.588;2023-12-22T05:31:27;45.80;;;42.63;;
8397;SDS011;4236;54.504;9.588;2023-12-22T05:33:57;47.37;;;43.80;;
8397;SDS011;4236;54.504;9.588;2023-12-22T05:36:25;47.93;;;44.33;;
8397;SDS011;4236;54.504;9.588;2023-12-22T05:38:52;51.47;;;47.83;;
8397;SDS011;4236;54.504;9.588;2023-12-22T05:41:19;51.47;;;46.43;;
8397;SDS011;4236;54.504;9.588;2023-12-22T05:43:47;53.97;;;48.60;;
8397;SDS011;4236;54.504;9.588;2023-12-22T05:46:14;45.93;;;42.10;;
8397;SDS011;4236;54.504;9.588;2023-12-22T05:48:42;47.13;;;43.83;;
8397;SDS011;4236;54.504;9.588;2023-12-22T05:51:11;47.30;;;43.60;;
8397;SDS011;4236;54.504;9.588;2023-12-22T05:53:39;50.97;;;46.67;;
8397;SDS011;4236;54.504;9.588;2023-12-22T05:56:16;44.73;;;40.50;;
8397;SDS011;4236;54.504;9.588;2023-12-22T05:58:44;49.80;;;46.00;;
8397;SDS011;4236;54.504;9.588;2023-12-22T06:01:14;47.13;;;43.93;;
8397;SDS011;4236;54.504;9.588;2023-12-22T06:03:41;49.67;;;46.67;;
8397;SDS011;4236;54.504;9.588;2023-12-22T06:06:10;48.13;;;44.93;;
8397;SDS011;4236;54.504;9.588;2023-12-22T06:08:38;49.20;;;46.33;;
8397;SDS011;4236;54.504;9.588;2023-12-22T06:11:06;47.83;;;44.93;;
8397;SDS011;4236;54.504;9.588;2023-12-22T06:13:33;52.63;;;49.13;;
8397;SDS011;4236;54.504;9.588;2023-12-22T06:16:01;47.23;;;44.23;;
8397;SDS011;4236;54.504;9.588;2023-12-22T06:18:29;45.63;;;43.50;;
8397;SDS011;4236;54.504;9.588;2023-12-22T06:20:56;44.73;;;42.40;;
8397;SDS011;4236;54.504;9.588;2023-12-22T06:23:25;41.30;;;38.87;;
8397;SDS011;4236;54.504;9.588;2023-12-22T06:25:56;48.73;;;45.63;;
8397;SDS011;4236;54.504;9.588;2023-12-22T06:28:24;54.83;;;51.93;;
8397;SDS011;4236;54.504;9.588;2023-12-22T06:30:51;47.97;;;44.80;;
8397;SDS011;4236;54.504;9.588;2023-12-22T06:33:20;46.80;;;43.90;;
8397;SDS011;4236;54.504;9.588;2023-12-22T06:35:48;55.43;;;51.80;;
8397;SDS011;4236;54.504;9.588;2023-12-22T06:38:20;46.83;;;44.33;;
8397;SDS011;4236;54.504;9.588;2023-12-22T06:40:49;52.40;;;49.70;;
8397;SDS011;4236;54.504;9.588;2023-12-22T06:43:17;52.97;;;50.00;;
8397;SDS011;4236;54.504;9.588;2023-12-22T06:45:44;52.03;;;48.80;;
8397;SDS011;4236;54.504;9.588;2023-12-22T06:48:12;47.23;;;44.63;;
8397;SDS011;4236;54.504;9.588;2023-12-22T06:50:40;48.87;;;46.10;;
8397;SDS011;4236;54.504;9.588;2023-12-22T06:53:11;52.23;;;49.37;;
8397;SDS011;4236;54.504;9.588;2023-12-22T06:55:52;58.40;;;55.10;;
8397;SDS011;4236;54.504;9.588;2023-12-22T06:58:20;59.33;;;54.93;;
8397;SDS011;4236;54.504;9.588;2023-12-22T07:00:51;60.20;;;56.70;;
8397;SDS011;4236;54.504;9.588;2023-12-22T07:03:19;60.13;;;56.63;;
8397;SDS011;4236;54.504;9.588;2023-12-22T07:05:47;61.40;;;57.63;;
8397;SDS011;4236;54.504;9.588;2023-12-22T07:08:15;56.43;;;52.40;;
8397;SDS011;4236;54.504;9.588;2023-12-22T07:10:43;51.20;;;47.40;;
8397;SDS011;4236;54.504;9.588;2023-12-22T07:13:13;59.17;;;52.93;;
8397;SDS011;4236;54.504;9.588;2023-12-22T07:15:42;61.87;;;58.67;;
8397;SDS011;4236;54.504;9.588;2023-12-22T07:18:11;227.10;;;215.67;;
8397;SDS011;4236;54.504;9.588;2023-12-22T07:20:39;459.83;;;435.73;;
8397;SDS011;4236;54.504;9.588;2023-12-22T07:23:07;474.63;;;447.83;;
8397;SDS011;4236;54.504;9.588;2023-12-22T07:25:37;469.67;;;442.90;;
8397;SDS011;4236;54.504;9.588;2023-12-22T07:28:06;474.47;;;447.70;;
8397;SDS011;4236;54.504;9.588;2023-12-22T07:30:35;459.17;;;433.90;;
8397;SDS011;4236;54.504;9.588;2023-12-22T07:33:02;442.93;;;419.40;;
8397;SDS011;4236;54.504;9.588;2023-12-22T07:35:30;436.30;;;414.43;;
8397;SDS011;4236;54.504;9.588;2023-12-22T07:37:58;431.87;;;410.60;;
8397;SDS011;4236;54.504;9.588;2023-12-22T07:40:25;438.27;;;416.27;;
8397;SDS011;4236;54.504;9.588;2023-12-22T07:42:53;434.03;;;412.57;;
8397;SDS011;4236;54.504;9.588;2023-12-22T07:45:21;414.30;;;393.30;;
8397;SDS011;4236;54.504;9.588;2023-12-22T07:47:50;414.17;;;392.60;;
8397;SDS011;4236;54.504;9.588;2023-12-22T07:50:18;407.47;;;386.83;;
8397;SDS011;4236;54.504;9.588;2023-12-22T07:52:46;415.00;;;395.60;;
8397;SDS011;4236;54.504;9.588;2023-12-22T07:55:14;426.87;;;406.20;;
8397;SDS011;4236;54.504;9.588;2023-12-22T07:57:41;412.47;;;393.67;;
8397;SDS011;4236;54.504;9.588;2023-12-22T08:00:10;418.67;;;398.63;;
8397;SDS011;4236;54.504;9.588;2023-12-22T08:02:37;404.70;;;385.83;;
8397;SDS011;4236;54.504;9.588;2023-12-22T08:05:06;405.00;;;385.43;;
8397;SDS011;4236;54.504;9.588;2023-12-22T08:07:34;408.93;;;390.83;;
8397;SDS011;4236;54.504;9.588;2023-12-22T08:10:02;412.57;;;393.40;;
8397;SDS011;4236;54.504;9.588;2023-12-22T08:12:29;409.20;;;390.17;;
8397;SDS011;4236;54.504;9.588;2023-12-22T08:14:58;416.43;;;397.03;;
8397;SDS011;4236;54.504;9.588;2023-12-22T08:17:26;424.03;;;405.23;;
8397;SDS011;4236;54.504;9.588;2023-12-22T08:19:54;410.80;;;392.23;;
8397;SDS011;4236;54.504;9.588;2023-12-22T08:22:33;417.50;;;398.43;;
8397;SDS011;4236;54.504;9.588;2023-12-22T08:25:01;417.33;;;398.30;;
8397;SDS011;4236;54.504;9.588;2023-12-22T08:27:29;420.60;;;401.30;;
8397;SDS011;4236;54.504;9.588;2023-12-22T08:29:57;396.77;;;378.60;;
8397;SDS011;4236;54.504;9.588;2023-12-22T08:32:24;402.30;;;383.70;;
8397;SDS011;4236;54.504;9.588;2023-12-22T08:34:52;403.67;;;384.00;;
8397;SDS011;4236;54.504;9.588;2023-12-22T08:37:19;407.10;;;387.83;;
8397;SDS011;4236;54.504;9.588;2023-12-22T08:39:49;391.07;;;372.87;;
8397;SDS011;4236;54.504;9.588;2023-12-22T08:42:17;396.97;;;378.43;;
8397;SDS011;4236;54.504;9.588;2023-12-22T08:44:44;420.97;;;401.20;;
8397;SDS011;4236;54.504;9.588;2023-12-22T08:47:12;394.07;;;375.77;;
8397;SDS011;4236;54.504;9.588;2023-12-22T08:49:40;409.50;;;388.07;;
8397;SDS011;4236;54.504;9.588;2023-12-22T08:52:08;376.07;;;360.00;;
8397;SDS011;4236;54.504;9.588;2023-12-22T08:54:35;393.33;;;376.73;;
8397;SDS011;4236;54.504;9.588;2023-12-22T08:57:04;381.53;;;365.13;;
8397;SDS011;4236;54.504;9.588;2023-12-22T08:59:32;373.10;;;356.60;;
8397;SDS011;4236;54.504;9.588;2023-12-22T09:01:59;405.87;;;386.50;;
8397;SDS011;4236;54.504;9.588;2023-12-22T09:04:27;419.07;;;399.47;;
8397;SDS011;4236;54.504;9.588;2023-12-22T09:06:55;429.30;;;410.23;;
8397;SDS011;4236;54.504;9.588;2023-12-22T09:09:22;415.60;;;397.67;;
8397;SDS011;4236;54.504;9.588;2023-12-22T09:11:51;409.10;;;390.87;;
8397;SDS011;4236;54.504;9.588;2023-12-22T09:14:21;417.10;;;397.77;;
8397;SDS011;4236;54.504;9.588;2023-12-22T09:16:49;402.23;;;384.00;;
8397;SDS011;4236;54.504;9.588;2023-12-22T09:19:16;394.67;;;376.27;;
8397;SDS011;4236;54.504;9.588;2023-12-22T09:21:44;394.93;;;376.83;;
8397;SDS011;4236;54.504;9.588;2023-12-22T09:24:12;405.00;;;386.63;;
8397;SDS011;4236;54.504;9.588;2023-12-22T09:26:39;398.23;;;379.70;;
8397;SDS011;4236;54.504;9.588;2023-12-22T09:29:07;405.53;;;387.07;;
8397;SDS011;4236;54.504;9.588;2023-12-22T09:31:36;398.57;;;380.50;;
8397;SDS011;4236;54.504;9.588;2023-12-22T09:34:03;404.17;;;385.23;;
8397;SDS011;4236;54.504;9.588;2023-12-22T09:36:31;395.53;;;376.83;;
8397;SDS011;4236;54.504;9.588;2023-12-22T09:38:59;390.03;;;372.40;;
8397;SDS011;4236;54.504;9.588;2023-12-22T09:41:27;390.70;;;372.40;;
8397;SDS011;4236;54.504;9.588;2023-12-22T09:43:55;393.30;;;375.17;;
8397;SDS011;4236;54.504;9.588;2023-12-22T09:46:23;388.23;;;370.50;;
8397;SDS011;4236;54.504;9.588;2023-12-22T09:48:53;395.23;;;376.90;;
8397;SDS011;4236;54.504;9.588;2023-12-22T09:51:22;395.53;;;377.73;;
8397;SDS011;4236;54.504;9.588;2023-12-22T09:53:50;391.50;;;373.23;;
8397;SDS011;4236;54.504;9.588;2023-12-22T09:56:18;394.30;;;375.30;;
8397;SDS011;4236;54.504;9.588;2023-12-22T09:58:46;384.90;;;367.20;;
8397;SDS011;4236;54.504;9.588;2023-12-22T10:01:14;397.80;;;379.13;;
8397;SDS011;4236;54.504;9.588;2023-12-22T10:03:42;391.97;;;374.03;;
8397;SDS011;4236;54.504;9.588;2023-12-22T10:06:15;396.30;;;378.17;;
8397;SDS011;4236;54.504;9.588;2023-12-22T10:08:43;402.80;;;383.70;;
8397;SDS011;4236;54.504;9.588;2023-12-22T10:11:12;391.37;;;373.27;;
8397;SDS011;4236;54.504;9.588;2023-12-22T10:13:40;398.70;;;380.33;;
8397;SDS011;4236;54.504;9.588;2023-12-22T10:16:08;394.20;;;376.20;;
8397;SDS011;4236;54.504;9.588;2023-12-22T10:18:36;394.60;;;376.63;;
8397;SDS011;4236;54.504;9.588;2023-12-22T10:21:04;399.13;;;381.30;;
8397;SDS011;4236;54.504;9.588;2023-12-22T10:23:33;396.13;;;377.47;;
8397;SDS011;4236;54.504;9.588;2023-12-22T10:26:00;401.63;;;382.43;;
8397;SDS011;4236;54.504;9.588;2023-12-22T10:28:28;391.17;;;373.80;;
8397;SDS011;4236;54.504;9.588;2023-12-22T10:30:56;394.60;;;376.90;;
8397;SDS011;4236;54.504;9.588;2023-12-22T10:33:25;406.13;;;387.37;;
8397;SDS011;4236;54.504;9.588;2023-12-22T10:35:53;390.70;;;373.37;;
8397;SDS011;4236;54.504;9.588;2023-12-22T10:38:21;388.37;;;371.20;;
8397;SDS011;4236;54.504;9.588;2023-12-22T10:40:50;383.13;;;365.70;;
8397;SDS011;4236;54.504;9.588;2023-12-22T10:43:17;390.70;;;373.53;;
8397;SDS011;4236;54.504;9.588;2023-12-22T10:45:45;397.67;;;380.30;;
8397;SDS011;4236;54.504;9.588;2023-12-22T10:48:13;392.07;;;374.47;;
8397;SDS011;4236;54.504;9.588;2023-12-22T10:50:41;403.40;;;385.40;;
8397;SDS011;4236;54.504;9.588;2023-12-22T10:53:09;405.47;;;387.73;;
8397;SDS011;4236;54.504;9.588;2023-12-22T10:55:42;394.20;;;377.33;;
8397;SDS011;4236;54.504;9.588;2023-12-22T10:58:11;412.17;;;393.70;;
8397;SDS011;4236;54.504;9.588;2023-12-22T11:00:40;395.63;;;378.80;;
8397;SDS011;4236;54.504;9.588;2023-12-22T11:03:09;402.47;;;385.47;;
8397;SDS011;4236;54.504;9.588;2023-12-22T11:05:40;392.77;;;376.13;;
8397;SDS011;4236;54.504;9.588;2023-12-22T11:08:11;399.30;;;382.50;;
8397;SDS011;4236;54.504;9.588;2023-12-22T11:10:40;387.73;;;371.07;;
8397;SDS011;4236;54.504;9.588;2023-12-22T11:13:09;401.97;;;385.23;;
8397;SDS011;4236;54.504;9.588;2023-12-22T11:15:38;387.90;;;371.63;;
8397;SDS011;4236;54.504;9.588;2023-12-22T11:18:07;389.17;;;372.40;;
8397;SDS011;4236;54.504;9.588;2023-12-22T11:20:35;410.37;;;391.23;;
8397;SDS011;4236;54.504;9.588;2023-12-22T11:23:03;423.53;;;403.03;;
8397;SDS011;4236;54.504;9.588;2023-12-22T11:25:31;430.13;;;410.03;;
8397;SDS011;4236;54.504;9.588;2023-12-22T11:28:00;420.87;;;401.37;;
8397;SDS011;4236;54.504;9.588;2023-12-22T11:30:27;434.43;;;414.80;;
8397;SDS011;4236;54.504;9.588;2023-12-22T11:32:58;445.73;;;425.33;;
8397;SDS011;4236;54.504;9.588;2023-12-22T11:35:26;436.40;;;416.33;;
8397;SDS011;4236;54.504;9.588;2023-12-22T11:37:59;436.10;;;415.93;;
8397;SDS011;4236;54.504;9.588;2023-12-22T11:40:28;426.10;;;406.83;;
8397;SDS011;4236;54.504;9.588;2023-12-22T11:42:56;417.97;;;399.63;;
8397;SDS011;4236;54.504;9.588;2023-12-22T11:45:24;397.00;;;380.03;;
8397;SDS011;4236;54.504;9.588;2023-12-22T11:47:52;410.93;;;390.93;;
8397;SDS011;4236;54.504;9.588;2023-12-22T11:50:29;392.93;;;375.73;;
8397;SDS011;4236;54.504;9.588;2023-12-22T11:52:59;397.67;;;380.00;;
8397;SDS011;4236;54.504;9.588;2023-12-22T11:55:57;373.53;;;357.50;;
8397;SDS011;4236;54.504;9.588;2023-12-22T11:58:38;272.63;;;262.50;;
8397;SDS011;4236;54.504;9.588;2023-12-22T12:01:06;157.00;;;150.60;;
8397;SDS011;4236;54.504;9.588;2023-12-22T12:03:37;90.50;;;86.90;;
8397;SDS011;4236;54.504;9.588;2023-12-22T12:06:13;49.60;;;47.37;;
8397;SDS011;4236;54.504;9.588;2023-12-22T12:08:41;53.13;;;50.23;;
8397;SDS011;4236;54.504;9.588;2023-12-22T12:11:09;43.80;;;41.73;;
8397;SDS011;4236;54.504;9.588;2023-12-22T12:13:39;50.73;;;47.73;;
8397;SDS011;4236;54.504;9.588;2023-12-22T12:16:08;52.57;;;49.70;;
8397;SDS011;4236;54.504;9.588;2023-12-22T12:18:38;67.03;;;63.83;;
8397;SDS011;4236;54.504;9.588;2023-12-22T12:21:06;160.67;;;153.77;;
8397;SDS011;4236;54.504;9.588;2023-12-22T12:23:36;428.57;;;410.47;;
8397;SDS011;4236;54.504;9.588;2023-12-22T12:26:05;469.10;;;447.60;;
8397;SDS011;4236;54.504;9.588;2023-12-22T12:28:34;463.53;;;442.43;;
8397;SDS011;4236;54.504;9.588;2023-12-22T12:31:02;459.93;;;440.30;;
8397;SDS011;4236;54.504;9.588;2023-12-22T12:33:31;457.40;;;438.23;;
8397;SDS011;4236;54.504;9.588;2023-12-22T12:35:59;448.77;;;429.63;;
8397;SDS011;4236;54.504;9.588;2023-12-22T12:38:35;438.27;;;419.77;;
8397;SDS011;4236;54.504;9.588;2023-12-22T12:41:05;445.53;;;427.23;;
8397;SDS011;4236;54.504;9.588;2023-12-22T12:43:32;433.90;;;415.67;;
8397;SDS011;4236;54.504;9.588;2023-12-22T12:46:03;421.17;;;403.63;;
8397;SDS011;4236;54.504;9.588;2023-12-22T12:48:31;401.80;;;385.23;;
8397;SDS011;4236;54.504;9.588;2023-12-22T12:51:02;367.33;;;352.57;;
8397;SDS011;4236;54.504;9.588;2023-12-22T12:53:31;373.63;;;358.47;;
8397;SDS011;4236;54.504;9.588;2023-12-22T12:56:00;354.40;;;339.50;;
8397;SDS011;4236;54.504;9.588;2023-12-22T12:58:29;368.60;;;354.10;;
8397;SDS011;4236;54.504;9.588;2023-12-22T13:01:04;374.70;;;358.40;;
8397;SDS011;4236;54.504;9.588;2023-12-22T13:03:32;392.10;;;374.97;;
8397;SDS011;4236;54.504;9.588;2023-12-22T13:06:07;390.53;;;373.63;;
8397;SDS011;4236;54.504;9.588;2023-12-22T13:08:34;391.10;;;374.00;;
8397;SDS011;4236;54.504;9.588;2023-12-22T13:11:10;377.63;;;361.53;;
8397;SDS011;4236;54.504;9.588;2023-12-22T13:13:42;376.07;;;359.83;;
8397;SDS011;4236;54.504;9.588;2023-12-22T13:16:10;367.87;;;351.87;;
8397;SDS011;4236;54.504;9.588;2023-12-22T13:18:38;373.33;;;357.63;;
8397;SDS011;4236;54.504;9.588;2023-12-22T13:21:07;373.13;;;356.93;;
8397;SDS011;4236;54.504;9.588;2023-12-22T13:23:35;367.60;;;352.10;;
8397;SDS011;4236;54.504;9.588;2023-12-22T13:26:02;351.80;;;337.20;;
8397;SDS011;4236;54.504;9.588;2023-12-22T13:28:30;342.17;;;328.57;;
8397;SDS011;4236;54.504;9.588;2023-12-22T13:30:59;346.60;;;331.40;;
8397;SDS011;4236;54.504;9.588;2023-12-22T13:33:27;334.57;;;320.13;;
8397;SDS011;4236;54.504;9.588;2023-12-22T13:35:56;342.10;;;327.53;;
8397;SDS011;4236;54.504;9.588;2023-12-22T13:38:24;336.93;;;323.63;;
8397;SDS011;4236;54.504;9.588;2023-12-22T13:40:52;313.27;;;300.40;;
8397;SDS011;4236;54.504;9.588;2023-12-22T13:43:19;334.40;;;320.60;;
8397;SDS011;4236;54.504;9.588;2023-12-22T13:45:49;342.40;;;328.23;;
8397;SDS011;4236;54.504;9.588;2023-12-22T13:48:18;343.50;;;328.70;;
8397;SDS011;4236;54.504;9.588;2023-12-22T13:50:54;351.50;;;335.30;;
8397;SDS011;4236;54.504;9.588;2023-12-22T13:53:22;359.83;;;342.83;;
8397;SDS011;4236;54.504;9.588;2023-12-22T13:55:53;363.30;;;347.43;;
8397;SDS011;4236;54.504;9.588;2023-12-22T13:58:21;364.27;;;348.30;;
8397;SDS011;4236;54.504;9.588;2023-12-22T14:00:49;368.67;;;352.67;;
8397;SDS011;4236;54.504;9.588;2023-12-22T14:03:18;372.20;;;355.30;;
8397;SDS011;4236;54.504;9.588;2023-12-22T14:05:47;362.63;;;346.60;;
8397;SDS011;4236;54.504;9.588;2023-12-22T14:08:15;369.50;;;353.70;;
8397;SDS011;4236;54.504;9.588;2023-12-22T14:10:46;361.40;;;346.07;;
8397;SDS011;4236;54.504;9.588;2023-12-22T14:13:15;361.30;;;346.00;;
8397;SDS011;4236;54.504;9.588;2023-12-22T14:15:43;373.73;;;357.53;;
8397;SDS011;4236;54.504;9.588;2023-12-22T14:18:11;377.57;;;361.10;;
8397;SDS011;4236;54.504;9.588;2023-12-22T14:20:40;365.63;;;350.10;;
8397;SDS011;4236;54.504;9.588;2023-12-22T14:23:08;372.07;;;356.13;;
8397;SDS011;4236;54.504;9.588;2023-12-22T14:25:40;366.37;;;351.33;;
8397;SDS011;4236;54.504;9.588;2023-12-22T14:28:07;369.60;;;354.07;;
8397;SDS011;4236;54.504;9.588;2023-12-22T14:30:35;382.93;;;365.73;;
8397;SDS011;4236;54.504;9.588;2023-12-22T14:33:03;376.70;;;360.90;;
8397;SDS011;4236;54.504;9.588;2023-12-22T14:35:31;382.53;;;366.43;;
8397;SDS011;4236;54.504;9.588;2023-12-22T14:37:59;377.20;;;361.37;;